Alleghany, CA

7:11 PM PDT on August 28, 2014 (GMT -0700)
Grass Valley | Change Station
CLOSE
Current Station
Airport
Location: Grass Valley,
Elevation: 3153 ft
Nearby Weather Stations

Elev 3153 ft 39.22 °N, 121.00 °W | Updated 11 minutes ago

Clear
Clear
84 °F
Feels Like 84 °F
N
7
Wind Variable Wind from WNW

Today
High -- | Low -- °F
--% Chance of Precip.
Yesterday
High -- | Low -- °F
Precip. -- in
6:27 AM 7:39 PM
Waxing Crescent, 11% visible
Pressure 30.07 in
Visibility 10.0 miles
Clouds Clear
Dew Point 43 °F
Humidity 23%
Rainfall 0.00 in
Snow Depth Not available.
UV 0 out of 12
Pollen 8.40 out of 12
Ozone Unhealthy for Sensitive Groups
Flu Activity Not available.
METAR KGOO 290200Z AUTO 29006KT 10SM CLR 29/06 A3007 RMK AO1

More Conditions Fewer Conditions

Pressure 30.07 in
Visibility 10.0 miles
Clouds Clear
Dew Point 43 °F
Humidity 23%
Rainfall 0.00 in
Snow Depth Not available.
UV 0 out of 12
Pollen 8.40 out of 12
Ozone Unhealthy for Sensitive Groups
Flu Activity Not available.
METAR KGOO 290200Z AUTO 29006KT 10SM CLR 29/06 A3007 RMK AO1

More Conditions Fewer Conditions

10-Day Weather Forecast

Almanac

Astronomy

Aug. 28, 2014 Rise Set
Actual Time 6:27 AM PDT 7:39 PM PDT
Civil Twilight 5:59 AM PDT 8:07 PM PDT
Nautical Twilight 5:26 AM PDT 8:40 PM PDT
Astronomical Twilight 4:51 AM PDT 9:15 PM PDT
Moon 9:23 AM PDT (8/28) 9:07 PM PDT (8/28)
Length of Visible Light 14h 07m
Length of Day
13h 12m
Tomorrow will be 2m 27s shorter.
Waxing Crescent, 11% of the Moon is Illuminated
Today
Waxing Crescent
Sep 2
First Quarter
Sep 8
Full
Sep 15
Last Quarter
Sep 24
New

Today's Extremes

State Highs State Lows

Community

WunderPhotos

Upload Photos

1,748,124 photos uploaded!

Nearby

Air Quality

  Air Quality AQ Index Pollutant
Yesterday Unhealthy for Sensitive Groups
OZONE
Current Unhealthy for Sensitive Groups
OZONE
Thursday Moderate
OZONE
Friday Moderate
OZONE
Saturday Moderate
OZONE

Snow Depth

Station Depth Elevation
Rubicon #2 0 in 7500 ft
Summit Meadow 0 in 9122 ft
Adin Mountain 0 in 6200 ft

Earthquake Activity

City Distance Mag. Time & Date
Napa, California 127 miles 2.6 11:57 AM PDT
2014-08-27
Napa, California 127 miles 2.5 10:56 AM PDT
2014-08-26
Napa, California 126 miles 3.0 6:45 AM PDT
2014-08-26
American Canyon, California 129 miles 2.8 6:12 AM PDT
2014-08-26
Minimum magnitude displayed is 2.5.

Coastal Water Temperatures

Place Temperature
No Stations Reporting

Nearby Weather Stations